sensor_id;sensor_type;location;lat;lon;timestamp;pressure;altitude;pressure_sealevel;temperature;humidity
46129;BME280;31860;45.186;5.790;2023-07-16T00:01:54;98987.38;;;28.70;57.48
46129;BME280;31860;45.186;5.790;2023-07-16T00:04:19;98978.47;;;28.69;57.40
46129;BME280;31860;45.186;5.790;2023-07-16T00:06:45;98980.31;;;28.69;57.79
46129;BME280;31860;45.186;5.790;2023-07-16T00:09:11;98992.75;;;28.70;57.99
46129;BME280;31860;45.186;5.790;2023-07-16T00:11:36;99011.72;;;28.68;58.20
46129;BME280;31860;45.186;5.790;2023-07-16T00:14:01;99016.97;;;28.70;58.68
46129;BME280;31860;45.186;5.790;2023-07-16T00:16:27;99016.25;;;28.68;58.78
46129;BME280;31860;45.186;5.790;2023-07-16T00:18:53;99023.47;;;28.67;58.66
46129;BME280;31860;45.186;5.790;2023-07-16T00:21:18;99034.44;;;28.64;59.30
46129;BME280;31860;45.186;5.790;2023-07-16T00:23:44;99029.78;;;28.66;59.19
46129;BME280;31860;45.186;5.790;2023-07-16T00:26:09;99032.09;;;28.60;59.60
46129;BME280;31860;45.186;5.790;2023-07-16T00:28:34;99042.13;;;28.58;59.88
46129;BME280;31860;45.186;5.790;2023-07-16T00:31:00;99048.91;;;28.51;60.07
46129;BME280;31860;45.186;5.790;2023-07-16T00:33:26;99044.13;;;28.43;60.14
46129;BME280;31860;45.186;5.790;2023-07-16T00:35:51;99048.44;;;28.33;60.81
46129;BME280;31860;45.186;5.790;2023-07-16T00:38:17;99040.50;;;28.32;60.66
46129;BME280;31860;45.186;5.790;2023-07-16T00:40:44;99050.28;;;28.33;60.45
46129;BME280;31860;45.186;5.790;2023-07-16T00:43:10;99054.06;;;28.30;60.79
46129;BME280;31860;45.186;5.790;2023-07-16T00:45:36;99056.97;;;28.27;60.45
46129;BME280;31860;45.186;5.790;2023-07-16T00:48:02;99058.41;;;28.20;60.28
46129;BME280;31860;45.186;5.790;2023-07-16T00:50:29;99063.25;;;28.15;60.31
46129;BME280;31860;45.186;5.790;2023-07-16T00:53:02;99066.38;;;28.09;60.87
46129;BME280;31860;45.186;5.790;2023-07-16T00:55:29;99076.50;;;28.05;60.16
46129;BME280;31860;45.186;5.790;2023-07-16T00:58:01;99072.31;;;28.01;59.89
46129;BME280;31860;45.186;5.790;2023-07-16T01:00:32;99065.44;;;27.97;60.15
46129;BME280;31860;45.186;5.790;2023-07-16T01:02:58;99086.59;;;27.89;61.07
46129;BME280;31860;45.186;5.790;2023-07-16T01:05:24;99085.72;;;27.89;61.85
46129;BME280;31860;45.186;5.790;2023-07-16T01:07:59;99080.72;;;27.84;62.59
46129;BME280;31860;45.186;5.790;2023-07-16T01:10:27;99072.84;;;27.81;61.54
46129;BME280;31860;45.186;5.790;2023-07-16T01:12:54;99073.53;;;27.72;62.30
46129;BME280;31860;45.186;5.790;2023-07-16T01:15:21;99073.41;;;27.74;61.74
46129;BME280;31860;45.186;5.790;2023-07-16T01:17:46;99065.59;;;27.71;61.25
46129;BME280;31860;45.186;5.790;2023-07-16T01:20:11;99078.25;;;27.69;61.17
46129;BME280;31860;45.186;5.790;2023-07-16T01:26:19;99081.72;;;27.58;61.37
46129;BME280;31860;45.186;5.790;2023-07-16T01:29:12;99084.94;;;27.51;61.39
46129;BME280;31860;45.186;5.790;2023-07-16T01:31:45;99093.44;;;27.45;60.74
46129;BME280;31860;45.186;5.790;2023-07-16T01:34:11;99097.41;;;27.39;60.04
46129;BME280;31860;45.186;5.790;2023-07-16T01:36:39;99085.16;;;27.35;60.54
46129;BME280;31860;45.186;5.790;2023-07-16T01:39:05;99086.97;;;27.35;60.59
46129;BME280;31860;45.186;5.790;2023-07-16T01:41:31;99087.09;;;27.33;60.43
46129;BME280;31860;45.186;5.790;2023-07-16T01:43:56;99085.53;;;27.29;60.58
46129;BME280;31860;45.186;5.790;2023-07-16T01:46:22;99088.34;;;27.28;60.70
46129;BME280;31860;45.186;5.790;2023-07-16T01:48:47;99085.13;;;27.23;61.09
46129;BME280;31860;45.186;5.790;2023-07-16T01:51:12;99086.41;;;27.17;61.46
46129;BME280;31860;45.186;5.790;2023-07-16T01:53:41;99090.28;;;27.13;62.36
46129;BME280;31860;45.186;5.790;2023-07-16T01:56:06;99090.56;;;27.08;63.54
46129;BME280;31860;45.186;5.790;2023-07-16T01:58:31;99091.75;;;27.04;64.18
46129;BME280;31860;45.186;5.790;2023-07-16T02:00:57;99094.84;;;26.98;65.21
46129;BME280;31860;45.186;5.790;2023-07-16T02:03:23;99093.53;;;26.91;66.12
46129;BME280;31860;45.186;5.790;2023-07-16T02:05:48;99096.63;;;26.85;66.85
46129;BME280;31860;45.186;5.790;2023-07-16T02:08:14;99094.41;;;26.79;67.46
46129;BME280;31860;45.186;5.790;2023-07-16T02:10:39;99093.72;;;26.76;68.14
46129;BME280;31860;45.186;5.790;2023-07-16T02:13:05;99105.41;;;26.75;68.14
46129;BME280;31860;45.186;5.790;2023-07-16T02:15:30;99100.16;;;26.73;67.64
46129;BME280;31860;45.186;5.790;2023-07-16T02:17:55;99113.75;;;26.70;67.71
46129;BME280;31860;45.186;5.790;2023-07-16T02:20:21;99122.09;;;26.66;67.72
46129;BME280;31860;45.186;5.790;2023-07-16T02:22:46;99108.88;;;26.63;68.36
46129;BME280;31860;45.186;5.790;2023-07-16T02:25:12;99115.22;;;26.62;68.44
46129;BME280;31860;45.186;5.790;2023-07-16T02:27:37;99107.47;;;26.57;68.69
46129;BME280;31860;45.186;5.790;2023-07-16T02:30:02;99121.19;;;26.53;68.79
46129;BME280;31860;45.186;5.790;2023-07-16T02:32:28;99121.38;;;26.50;69.60
46129;BME280;31860;45.186;5.790;2023-07-16T02:34:53;99122.13;;;26.52;69.55
46129;BME280;31860;45.186;5.790;2023-07-16T02:37:19;99129.28;;;26.51;69.35
46129;BME280;31860;45.186;5.790;2023-07-16T02:39:45;99141.88;;;26.51;68.94
46129;BME280;31860;45.186;5.790;2023-07-16T02:42:11;99133.06;;;26.49;68.36
46129;BME280;31860;45.186;5.790;2023-07-16T02:44:37;99135.84;;;26.47;67.96
46129;BME280;31860;45.186;5.790;2023-07-16T02:47:07;99127.03;;;26.45;67.82
46129;BME280;31860;45.186;5.790;2023-07-16T02:49:32;99141.28;;;26.46;67.73
46129;BME280;31860;45.186;5.790;2023-07-16T02:51:58;99141.72;;;26.40;67.12
46129;BME280;31860;45.186;5.790;2023-07-16T02:54:23;99145.16;;;26.42;67.08
46129;BME280;31860;45.186;5.790;2023-07-16T02:56:49;99144.38;;;26.40;66.96
46129;BME280;31860;45.186;5.790;2023-07-16T02:59:14;99136.41;;;26.38;67.22
46129;BME280;31860;45.186;5.790;2023-07-16T03:01:39;99140.72;;;26.41;67.02
46129;BME280;31860;45.186;5.790;2023-07-16T03:04:05;99137.09;;;26.42;66.84
46129;BME280;31860;45.186;5.790;2023-07-16T03:06:30;99133.47;;;26.43;66.88
46129;BME280;31860;45.186;5.790;2023-07-16T03:08:55;99117.47;;;26.41;66.94
46129;BME280;31860;45.186;5.790;2023-07-16T03:11:21;99114.81;;;26.41;67.04
46129;BME280;31860;45.186;5.790;2023-07-16T03:13:47;99109.56;;;26.40;66.96
46129;BME280;31860;45.186;5.790;2023-07-16T03:16:12;99093.88;;;26.34;67.27
46129;BME280;31860;45.186;5.790;2023-07-16T03:18:38;99094.31;;;26.40;66.81
46129;BME280;31860;45.186;5.790;2023-07-16T03:21:03;99100.53;;;26.41;66.61
46129;BME280;31860;45.186;5.790;2023-07-16T03:23:28;99096.91;;;26.42;66.69
46129;BME280;31860;45.186;5.790;2023-07-16T03:25:54;99104.84;;;26.43;66.38
46129;BME280;31860;45.186;5.790;2023-07-16T03:28:19;99109.88;;;26.48;66.44
46129;BME280;31860;45.186;5.790;2023-07-16T03:30:48;99105.41;;;26.48;66.56
46129;BME280;31860;45.186;5.790;2023-07-16T03:33:14;99112.56;;;26.48;66.24
46129;BME280;31860;45.186;5.790;2023-07-16T03:35:43;99115.34;;;26.46;66.25
46129;BME280;31860;45.186;5.790;2023-07-16T03:38:09;99121.75;;;26.44;66.23
46129;BME280;31860;45.186;5.790;2023-07-16T03:40:35;99119.00;;;26.45;66.19
46129;BME280;31860;45.186;5.790;2023-07-16T03:43:00;99140.44;;;26.45;66.28
46129;BME280;31860;45.186;5.790;2023-07-16T03:45:26;99141.28;;;26.46;66.12
46129;BME280;31860;45.186;5.790;2023-07-16T03:47:51;99148.50;;;26.45;66.44
46129;BME280;31860;45.186;5.790;2023-07-16T03:50:16;99148.38;;;26.47;66.08
46129;BME280;31860;45.186;5.790;2023-07-16T03:52:43;99148.28;;;26.48;65.13
46129;BME280;31860;45.186;5.790;2023-07-16T03:55:09;99152.69;;;26.49;63.68
46129;BME280;31860;45.186;5.790;2023-07-16T03:57:34;99149.25;;;26.47;63.51
46129;BME280;31860;45.186;5.790;2023-07-16T04:00:01;99149.25;;;26.47;62.70
46129;BME280;31860;45.186;5.790;2023-07-16T04:02:26;99156.53;;;26.45;62.55
46129;BME280;31860;45.186;5.790;2023-07-16T04:04:51;99158.22;;;26.46;62.40
46129;BME280;31860;45.186;5.790;2023-07-16T04:07:17;99157.34;;;26.46;63.49
46129;BME280;31860;45.186;5.790;2023-07-16T04:09:43;99151.25;;;26.44;63.93
46129;BME280;31860;45.186;5.790;2023-07-16T04:12:08;99148.56;;;26.44;63.89
46129;BME280;31860;45.186;5.790;2023-07-16T04:14:33;99143.19;;;26.44;63.87
46129;BME280;31860;45.186;5.790;2023-07-16T04:16:59;99139.78;;;26.42;63.30
46129;BME280;31860;45.186;5.790;2023-07-16T04:19:24;99145.97;;;26.42;63.43
46129;BME280;31860;45.186;5.790;2023-07-16T04:21:50;99149.53;;;26.43;63.55
46129;BME280;31860;45.186;5.790;2023-07-16T04:24:15;99165.72;;;26.41;63.78
46129;BME280;31860;45.186;5.790;2023-07-16T04:26:40;99170.22;;;26.41;63.29
46129;BME280;31860;45.186;5.790;2023-07-16T04:29:06;99164.97;;;26.39;63.74
46129;BME280;31860;45.186;5.790;2023-07-16T04:31:31;99168.88;;;26.34;63.72
46129;BME280;31860;45.186;5.790;2023-07-16T04:33:56;99172.34;;;26.36;63.66
46129;BME280;31860;45.186;5.790;2023-07-16T04:36:22;99166.09;;;26.35;63.74
46129;BME280;31860;45.186;5.790;2023-07-16T04:38:47;99165.25;;;26.35;63.98
46129;BME280;31860;45.186;5.790;2023-07-16T04:41:12;99172.34;;;26.36;63.88
46129;BME280;31860;45.186;5.790;2023-07-16T04:43:38;99173.28;;;26.35;63.61
46129;BME280;31860;45.186;5.790;2023-07-16T04:46:04;99172.34;;;26.36;62.96
46129;BME280;31860;45.186;5.790;2023-07-16T04:48:29;99174.03;;;26.37;62.44
46129;BME280;31860;45.186;5.790;2023-07-16T04:50:54;99175.13;;;26.34;62.34
46129;BME280;31860;45.186;5.790;2023-07-16T04:53:22;99178.63;;;26.35;62.26
46129;BME280;31860;45.186;5.790;2023-07-16T04:55:47;99177.09;;;26.31;63.15
46129;BME280;31860;45.186;5.790;2023-07-16T04:58:13;99178.84;;;26.32;63.46
46129;BME280;31860;45.186;5.790;2023-07-16T05:00:38;99179.59;;;26.34;64.17
46129;BME280;31860;45.186;5.790;2023-07-16T05:03:04;99189.34;;;26.35;63.74
46129;BME280;31860;45.186;5.790;2023-07-16T05:05:29;99204.66;;;26.33;63.68
46129;BME280;31860;45.186;5.790;2023-07-16T05:07:55;99211.88;;;26.32;63.27
46129;BME280;31860;45.186;5.790;2023-07-16T05:10:20;99211.75;;;26.34;62.61
46129;BME280;31860;45.186;5.790;2023-07-16T05:12:46;99212.53;;;26.36;62.09
46129;BME280;31860;45.186;5.790;2023-07-16T05:15:11;99212.41;;;26.37;61.51
46129;BME280;31860;45.186;5.790;2023-07-16T05:17:37;99208.78;;;26.38;61.34
46129;BME280;31860;45.186;5.790;2023-07-16T05:20:03;99203.34;;;26.40;60.72
46129;BME280;31860;45.186;5.790;2023-07-16T05:22:29;99198.81;;;26.40;60.49
46129;BME280;31860;45.186;5.790;2023-07-16T05:24:54;99205.16;;;26.39;60.46
46129;BME280;31860;45.186;5.790;2023-07-16T05:27:20;99205.91;;;26.41;60.02
46129;BME280;31860;45.186;5.790;2023-07-16T05:29:45;99206.84;;;26.40;60.41
46129;BME280;31860;45.186;5.790;2023-07-16T05:32:11;99213.19;;;26.39;60.81
46129;BME280;31860;45.186;5.790;2023-07-16T05:34:36;99215.09;;;26.37;60.10
46129;BME280;31860;45.186;5.790;2023-07-16T05:37:02;99208.88;;;26.37;59.71
46129;BME280;31860;45.186;5.790;2023-07-16T05:39:27;99220.47;;;26.37;60.11
46129;BME280;31860;45.186;5.790;2023-07-16T05:41:52;99222.16;;;26.38;59.98
46129;BME280;31860;45.186;5.790;2023-07-16T05:44:18;99237.31;;;26.39;59.42
46129;BME280;31860;45.186;5.790;2023-07-16T05:46:43;99232.81;;;26.40;59.02
46129;BME280;31860;45.186;5.790;2023-07-16T05:49:08;99241.03;;;26.37;58.48
46129;BME280;31860;45.186;5.790;2023-07-16T05:51:34;99238.16;;;26.40;57.44
46129;BME280;31860;45.186;5.790;2023-07-16T05:53:59;99226.59;;;26.39;56.94
46129;BME280;31860;45.186;5.790;2023-07-16T05:56:27;99237.09;;;26.42;56.48
46129;BME280;31860;45.186;5.790;2023-07-16T05:58:52;99237.09;;;26.42;55.93
46129;BME280;31860;45.186;5.790;2023-07-16T06:01:18;99234.31;;;26.44;55.72
46129;BME280;31860;45.186;5.790;2023-07-16T06:03:43;99240.44;;;26.46;55.81
46129;BME280;31860;45.186;5.790;2023-07-16T06:06:09;99240.44;;;26.46;55.34
46129;BME280;31860;45.186;5.790;2023-07-16T06:08:34;99237.69;;;26.47;55.34
46129;BME280;31860;45.186;5.790;2023-07-16T06:11:01;99231.25;;;26.50;55.74
46129;BME280;31860;45.186;5.790;2023-07-16T06:13:26;99224.94;;;26.51;55.48
46129;BME280;31860;45.186;5.790;2023-07-16T06:15:52;99232.78;;;26.54;55.43
46129;BME280;31860;45.186;5.790;2023-07-16T06:18:17;99220.91;;;26.58;55.41
46129;BME280;31860;45.186;5.790;2023-07-16T06:20:46;99215.31;;;26.61;55.54
46129;BME280;31860;45.186;5.790;2023-07-16T06:23:12;99216.75;;;26.66;55.23
46129;BME280;31860;45.186;5.790;2023-07-16T06:25:38;99221.84;;;26.71;55.60
46129;BME280;31860;45.186;5.790;2023-07-16T06:28:05;99222.34;;;26.77;55.33
46129;BME280;31860;45.186;5.790;2023-07-16T06:30:31;99214.84;;;26.82;55.18
46129;BME280;31860;45.186;5.790;2023-07-16T06:32:58;99221.41;;;26.91;54.73
46129;BME280;31860;45.186;5.790;2023-07-16T06:35:23;99221.22;;;26.94;54.32
46129;BME280;31860;45.186;5.790;2023-07-16T06:37:49;99210.94;;;27.00;54.13
46129;BME280;31860;45.186;5.790;2023-07-16T06:40:15;99209.88;;;27.03;54.30
46129;BME280;31860;45.186;5.790;2023-07-16T06:42:40;99205.91;;;27.08;53.97
46129;BME280;31860;45.186;5.790;2023-07-16T06:45:06;99203.69;;;27.15;53.99
46129;BME280;31860;45.186;5.790;2023-07-16T06:47:32;99214.22;;;27.18;53.97
46129;BME280;31860;45.186;5.790;2023-07-16T06:49:57;99223.03;;;27.20;53.43
46129;BME280;31860;45.186;5.790;2023-07-16T06:52:23;99214.88;;;27.22;53.76
46129;BME280;31860;45.186;5.790;2023-07-16T06:54:54;99214.56;;;27.26;53.72
46129;BME280;31860;45.186;5.790;2023-07-16T06:57:21;99215.09;;;27.31;53.22
46129;BME280;31860;45.186;5.790;2023-07-16T06:59:46;99222.88;;;27.36;53.16
46129;BME280;31860;45.186;5.790;2023-07-16T07:02:12;99230.50;;;27.42;53.17
46129;BME280;31860;45.186;5.790;2023-07-16T07:04:37;99234.91;;;27.43;52.63
46129;BME280;31860;45.186;5.790;2023-07-16T07:07:03;99229.34;;;27.46;52.60
46129;BME280;31860;45.186;5.790;2023-07-16T07:09:28;99238.03;;;27.49;52.96
46129;BME280;31860;45.186;5.790;2023-07-16T07:11:53;99236.03;;;27.53;52.66
46129;BME280;31860;45.186;5.790;2023-07-16T07:14:19;99229.56;;;27.55;52.15
46129;BME280;31860;45.186;5.790;2023-07-16T07:16:44;99222.28;;;27.57;52.56
46129;BME280;31860;45.186;5.790;2023-07-16T07:19:10;99216.72;;;27.60;52.50
46129;BME280;31860;45.186;5.790;2023-07-16T07:21:35;99222.72;;;27.64;52.34
46129;BME280;31860;45.186;5.790;2023-07-16T07:24:00;99215.94;;;27.71;52.65
46129;BME280;31860;45.186;5.790;2023-07-16T07:26:26;99209.06;;;27.79;52.30
46129;BME280;31860;45.186;5.790;2023-07-16T07:28:52;99206.84;;;27.86;52.17
46129;BME280;31860;45.186;5.790;2023-07-16T07:31:17;99204.91;;;27.88;51.92
46129;BME280;31860;45.186;5.790;2023-07-16T07:33:43;99201.03;;;27.92;51.86
46129;BME280;31860;45.186;5.790;2023-07-16T07:36:08;99207.06;;;27.95;52.01
46129;BME280;31860;45.186;5.790;2023-07-16T07:38:33;99208.47;;;28.01;51.77
46129;BME280;31860;45.186;5.790;2023-07-16T07:40:59;99210.84;;;28.05;51.79
46129;BME280;31860;45.186;5.790;2023-07-16T07:43:24;99204.38;;;28.08;51.60
46129;BME280;31860;45.186;5.790;2023-07-16T07:45:50;99200.50;;;28.12;51.52
46129;BME280;31860;45.186;5.790;2023-07-16T07:48:15;99201.03;;;28.17;51.64
46129;BME280;31860;45.186;5.790;2023-07-16T07:50:40;99199.75;;;28.23;51.12
46129;BME280;31860;45.186;5.790;2023-07-16T07:53:06;99199.53;;;28.26;50.90
46129;BME280;31860;45.186;5.790;2023-07-16T07:55:32;99195.09;;;28.25;51.26
46129;BME280;31860;45.186;5.790;2023-07-16T07:57:58;99187.03;;;28.25;51.27
46129;BME280;31860;45.186;5.790;2023-07-16T08:00:23;99180.72;;;28.26;51.39
46129;BME280;31860;45.186;5.790;2023-07-16T08:02:48;99188.53;;;28.29;51.17
46129;BME280;31860;45.186;5.790;2023-07-16T08:05:14;99183.06;;;28.30;51.48
46129;BME280;31860;45.186;5.790;2023-07-16T08:07:39;99176.47;;;28.34;51.39
46129;BME280;31860;45.186;5.790;2023-07-16T08:10:05;99177.84;;;28.40;51.56
46129;BME280;31860;45.186;5.790;2023-07-16T08:12:30;99177.84;;;28.40;51.41
46129;BME280;31860;45.186;5.790;2023-07-16T08:14:56;99176.78;;;28.42;51.41
46129;BME280;31860;45.186;5.790;2023-07-16T08:17:22;99175.72;;;28.45;51.33
46129;BME280;31860;45.186;5.790;2023-07-16T08:19:47;99173.03;;;28.45;51.27
46129;BME280;31860;45.186;5.790;2023-07-16T08:22:12;99169.47;;;28.44;51.28
46129;BME280;31860;45.186;5.790;2023-07-16T08:24:38;99174.53;;;28.49;51.17
46129;BME280;31860;45.186;5.790;2023-07-16T08:27:03;99178.50;;;28.56;51.29
46129;BME280;31860;45.186;5.790;2023-07-16T08:29:29;99177.53;;;28.57;51.36
46129;BME280;31860;45.186;5.790;2023-07-16T08:31:54;99172.06;;;28.58;50.92
46129;BME280;31860;45.186;5.790;2023-07-16T08:34:20;99171.94;;;28.60;50.89
46129;BME280;31860;45.186;5.790;2023-07-16T08:36:45;99170.00;;;28.62;51.02
46129;BME280;31860;45.186;5.790;2023-07-16T08:39:11;99172.44;;;28.65;50.97
46129;BME280;31860;45.186;5.790;2023-07-16T08:41:37;99172.13;;;28.69;50.75
46129;BME280;31860;45.186;5.790;2023-07-16T08:44:03;99159.28;;;28.73;50.56
46129;BME280;31860;45.186;5.790;2023-07-16T08:46:28;99167.00;;;28.77;50.65
46129;BME280;31860;45.186;5.790;2023-07-16T08:48:56;99159.47;;;28.82;50.36
46129;BME280;31860;45.186;5.790;2023-07-16T08:51:23;99159.22;;;28.85;50.62
46129;BME280;31860;45.186;5.790;2023-07-16T08:53:48;99158.03;;;28.89;50.01
46129;BME280;31860;45.186;5.790;2023-07-16T08:56:14;99157.78;;;28.92;50.11
46129;BME280;31860;45.186;5.790;2023-07-16T08:58:42;99155.00;;;28.94;49.93
46129;BME280;31860;45.186;5.790;2023-07-16T09:01:08;99164.56;;;28.98;49.46
46129;BME280;31860;45.186;5.790;2023-07-16T09:03:34;99154.50;;;29.00;49.14
46129;BME280;31860;45.186;5.790;2023-07-16T09:06:02;99156.25;;;29.01;49.18
46129;BME280;31860;45.186;5.790;2023-07-16T09:08:27;99156.25;;;29.01;48.99
46129;BME280;31860;45.186;5.790;2023-07-16T09:10:57;99155.16;;;29.04;48.77
46129;BME280;31860;45.186;5.790;2023-07-16T09:13:25;99153.09;;;29.07;49.32
46129;BME280;31860;45.186;5.790;2023-07-16T09:15:54;99157.28;;;29.11;49.04
46129;BME280;31860;45.186;5.790;2023-07-16T09:18:21;99152.66;;;29.13;48.73
46129;BME280;31860;45.186;5.790;2023-07-16T09:20:47;99152.44;;;29.16;48.47
46129;BME280;31860;45.186;5.790;2023-07-16T09:23:16;99153.91;;;29.20;48.19
46129;BME280;31860;45.186;5.790;2023-07-16T09:25:43;99142.69;;;29.26;48.57
46129;BME280;31860;45.186;5.790;2023-07-16T09:28:08;99143.16;;;29.31;48.72
46129;BME280;31860;45.186;5.790;2023-07-16T09:30:34;99145.53;;;29.36;48.73
46129;BME280;31860;45.186;5.790;2023-07-16T09:33:26;99144.19;;;29.41;48.84
46129;BME280;31860;45.186;5.790;2023-07-16T09:35:51;99140.38;;;29.44;48.83
46129;BME280;31860;45.186;5.790;2023-07-16T09:38:18;99139.16;;;29.48;49.07
46129;BME280;31860;45.186;5.790;2023-07-16T09:40:44;99130.00;;;29.50;48.96
46129;BME280;31860;45.186;5.790;2023-07-16T09:43:10;99119.84;;;29.54;48.74
46129;BME280;31860;45.186;5.790;2023-07-16T09:45:36;99126.84;;;29.56;49.32
46129;BME280;31860;45.186;5.790;2023-07-16T09:48:03;99122.06;;;29.60;49.26
46129;BME280;31860;45.186;5.790;2023-07-16T09:50:29;99123.63;;;29.62;49.09
46129;BME280;31860;45.186;5.790;2023-07-16T09:52:57;99118.16;;;29.64;49.23
46129;BME280;31860;45.186;5.790;2023-07-16T09:55:24;99107.25;;;29.65;49.16
46129;BME280;31860;45.186;5.790;2023-07-16T09:57:55;99110.47;;;29.70;49.18
46129;BME280;31860;45.186;5.790;2023-07-16T10:00:23;99103.97;;;29.73;48.54
46129;BME280;31860;45.186;5.790;2023-07-16T10:02:50;99105.31;;;29.78;48.20
46129;BME280;31860;45.186;5.790;2023-07-16T10:05:19;99099.56;;;29.83;48.41
46129;BME280;31860;45.186;5.790;2023-07-16T10:07:53;99100.06;;;29.88;47.27
46129;BME280;31860;45.186;5.790;2023-07-16T10:10:19;99104.47;;;29.89;47.45
46129;BME280;31860;45.186;5.790;2023-07-16T10:13:01;99096.97;;;29.92;46.95
46129;BME280;31860;45.186;5.790;2023-07-16T10:15:28;99094.06;;;29.96;47.79
46129;BME280;31860;45.186;5.790;2023-07-16T10:17:54;99091.09;;;29.99;48.08
46129;BME280;31860;45.186;5.790;2023-07-16T10:20:34;99088.19;;;30.02;47.63
46129;BME280;31860;45.186;5.790;2023-07-16T10:23:10;99086.22;;;30.04;47.28
46129;BME280;31860;45.186;5.790;2023-07-16T10:25:37;99084.22;;;30.06;47.21
46129;BME280;31860;45.186;5.790;2023-07-16T10:28:03;99084.13;;;30.07;47.32
46129;BME280;31860;45.186;5.790;2023-07-16T10:30:30;99086.91;;;30.06;47.11
46129;BME280;31860;45.186;5.790;2023-07-16T10:32:55;99081.44;;;30.07;47.07
46129;BME280;31860;45.186;5.790;2023-07-16T10:35:21;99082.03;;;30.11;46.93
46129;BME280;31860;45.186;5.790;2023-07-16T10:37:46;99078.59;;;30.09;47.11
46129;BME280;31860;45.186;5.790;2023-07-16T10:40:13;99082.75;;;30.13;46.85
46129;BME280;31860;45.186;5.790;2023-07-16T10:42:41;99079.06;;;30.14;47.27
46129;BME280;31860;45.186;5.790;2023-07-16T10:45:08;99070.13;;;30.13;46.97
46129;BME280;31860;45.186;5.790;2023-07-16T10:47:39;99078.09;;;30.15;46.91
46129;BME280;31860;45.186;5.790;2023-07-16T10:50:09;99075.41;;;30.15;46.28
46129;BME280;31860;45.186;5.790;2023-07-16T10:52:35;99064.63;;;30.15;46.52
46129;BME280;31860;45.186;5.790;2023-07-16T10:55:01;99063.63;;;30.16;46.51
46129;BME280;31860;45.186;5.790;2023-07-16T10:57:27;99065.09;;;30.20;46.84
46129;BME280;31860;45.186;5.790;2023-07-16T10:59:55;99060.44;;;30.22;46.75
46129;BME280;31860;45.186;5.790;2023-07-16T11:02:22;99054.91;;;30.23;47.15
46129;BME280;31860;45.186;5.790;2023-07-16T11:04:48;99058.25;;;30.27;46.96
46129;BME280;31860;45.186;5.790;2023-07-16T11:07:15;99048.06;;;30.30;47.54
46129;BME280;31860;45.186;5.790;2023-07-16T11:09:46;99053.22;;;30.33;47.28
46129;BME280;31860;45.186;5.790;2023-07-16T11:12:14;99046.81;;;30.34;46.78
46129;BME280;31860;45.186;5.790;2023-07-16T11:14:47;99041.28;;;30.36;46.27
46129;BME280;31860;45.186;5.790;2023-07-16T11:17:13;99042.88;;;30.38;46.89
46129;BME280;31860;45.186;5.790;2023-07-16T11:19:40;99033.56;;;30.42;47.17
46129;BME280;31860;45.186;5.790;2023-07-16T11:22:09;99033.84;;;30.39;46.82
46129;BME280;31860;45.186;5.790;2023-07-16T11:24:39;99030.13;;;30.40;47.55
46129;BME280;31860;45.186;5.790;2023-07-16T11:27:12;99018.50;;;30.40;47.37
46129;BME280;31860;45.186;5.790;2023-07-16T11:29:37;99020.94;;;30.43;47.21
46129;BME280;31860;45.186;5.790;2023-07-16T11:32:03;99011.00;;;30.43;47.46
46129;BME280;31860;45.186;5.790;2023-07-16T11:34:28;99020.09;;;30.42;47.08
46129;BME280;31860;45.186;5.790;2023-07-16T11:36:54;99021.09;;;30.41;47.21
46129;BME280;31860;45.186;5.790;2023-07-16T11:39:19;99019.34;;;30.40;47.11
46129;BME280;31860;45.186;5.790;2023-07-16T11:41:58;99018.50;;;30.40;46.91
46129;BME280;31860;45.186;5.790;2023-07-16T11:44:23;99021.19;;;30.40;47.18
46129;BME280;31860;45.186;5.790;2023-07-16T11:46:49;99014.09;;;30.39;47.11
46129;BME280;31860;45.186;5.790;2023-07-16T11:49:15;99012.84;;;30.43;47.44
46129;BME280;31860;45.186;5.790;2023-07-16T11:51:40;99011.00;;;30.43;47.31
46129;BME280;31860;45.186;5.790;2023-07-16T11:54:09;99008.28;;;30.43;47.15
46129;BME280;31860;45.186;5.790;2023-07-16T11:56:35;98998.22;;;30.45;47.15
46129;BME280;31860;45.186;5.790;2023-07-16T11:59:00;98997.13;;;30.48;47.16
46129;BME280;31860;45.186;5.790;2023-07-16T12:01:25;98995.16;;;30.50;47.78
46129;BME280;31860;45.186;5.790;2023-07-16T12:03:51;98997.59;;;30.53;47.33
46129;BME280;31860;45.186;5.790;2023-07-16T12:06:16;99001.88;;;30.55;47.91
46129;BME280;31860;45.186;5.790;2023-07-16T12:08:41;98999.03;;;30.57;47.71
46129;BME280;31860;45.186;5.790;2023-07-16T12:11:07;98999.78;;;30.59;47.94
46129;BME280;31860;45.186;5.790;2023-07-16T12:13:32;98995.84;;;30.63;47.81
46129;BME280;31860;45.186;5.790;2023-07-16T12:15:57;98996.69;;;30.63;47.94
46129;BME280;31860;45.186;5.790;2023-07-16T12:18:23;98997.41;;;30.65;47.46
46129;BME280;31860;45.186;5.790;2023-07-16T12:20:48;98992.03;;;30.65;47.26
46129;BME280;31860;45.186;5.790;2023-07-16T12:23:14;98991.16;;;30.65;47.38
46129;BME280;31860;45.186;5.790;2023-07-16T12:25:39;98994.44;;;30.68;47.53
46129;BME280;31860;45.186;5.790;2023-07-16T12:28:05;98988.09;;;30.69;47.37
46129;BME280;31860;45.186;5.790;2023-07-16T12:30:30;98980.81;;;30.70;47.22
46129;BME280;31860;45.186;5.790;2023-07-16T12:32:56;98991.38;;;30.73;47.35
46129;BME280;31860;45.186;5.790;2023-07-16T12:35:21;98984.84;;;30.75;47.28
46129;BME280;31860;45.186;5.790;2023-07-16T12:37:47;98985.56;;;30.77;47.31
46129;BME280;31860;45.186;5.790;2023-07-16T12:40:12;98977.38;;;30.79;47.29
46129;BME280;31860;45.186;5.790;2023-07-16T12:42:38;98986.44;;;30.78;47.45
46129;BME280;31860;45.186;5.790;2023-07-16T12:45:03;98975.78;;;30.76;47.12
46129;BME280;31860;45.186;5.790;2023-07-16T12:47:29;98970.50;;;30.75;47.41
46129;BME280;31860;45.186;5.790;2023-07-16T12:49:55;98968.94;;;30.72;47.00
46129;BME280;31860;45.186;5.790;2023-07-16T12:52:20;98965.22;;;30.73;47.04
46129;BME280;31860;45.186;5.790;2023-07-16T12:54:45;98959.97;;;30.72;47.09
46129;BME280;31860;45.186;5.790;2023-07-16T12:57:11;98968.94;;;30.72;47.48
46129;BME280;31860;45.186;5.790;2023-07-16T12:59:36;98970.16;;;30.68;47.02